Time;durP1;ratioP1;P1;durP2;ratioP2;P2;SDS_P1;SDS_P2;PMS_P1;PMS_P2;Temp;Humidity;BMP_temperature;BMP_pressure;BME280_temperature;BME280_humidity;BME280_pressure;Samples;Min_cycle;Max_cycle;Signal;HPM_P1;HPM_P2
2021/08/09 07:52:35;;;;;;;8.25;6.42;;;;;;;19.12;94.24;98185.33;1869892;76;22661;-64
2021/08/09 07:55:04;;;;;;;7.30;4.60;;;;;;;19.18;93.86;98179.67;1826261;77;21093;-59
2021/08/09 07:57:31;;;;;;;6.20;3.83;;;;;;;19.29;93.85;98184.88;1826812;78;21538;-60
2021/08/09 07:59:57;;;;;;;4.10;3.30;;;;;;;19.43;93.52;98186.11;1827741;78;20880;-59
2021/08/09 08:02:24;;;;;;;5.75;3.15;;;;;;;19.61;93.01;98192.88;1827875;78;20971;-64
2021/08/09 08:04:52;;;;;;;5.10;3.20;;;;;;;19.83;92.42;98190.77;1827852;78;20911;-63
2021/08/09 08:07:19;;;;;;;5.00;3.17;;;;;;;20.05;91.56;98192.37;1828012;78;21446;-61
2021/08/09 08:09:48;;;;;;;4.33;3.05;;;;;;;20.27;90.64;98206.80;1827748;78;21098;-60
2021/08/09 08:12:16;;;;;;;4.22;3.25;;;;;;;20.49;89.68;98210.09;1827696;78;20872;-63
2021/08/09 08:14:43;;;;;;;4.00;2.92;;;;;;;20.70;88.81;98210.07;1828080;78;21372;-62
2021/08/09 08:17:11;;;;;;;2.58;2.25;;;;;;;20.88;87.69;98236.36;1827781;78;20884;-61
2021/08/09 08:19:38;;;;;;;2.30;2.10;;;;;;;21.01;86.15;98246.00;1827875;78;21451;-62
2021/08/09 08:22:06;;;;;;;5.92;2.40;;;;;;;21.18;85.75;98257.94;1827742;78;21105;-67
2021/08/09 08:24:35;;;;;;;3.30;2.10;;;;;;;21.36;84.52;98248.23;1827674;78;20868;-64
2021/08/09 08:27:03;;;;;;;2.55;1.98;;;;;;;21.55;84.07;98251.02;1828121;78;21395;-62
2021/08/09 08:29:29;;;;;;;2.33;1.85;;;;;;;21.71;82.72;98253.72;1827721;78;21536;-65
2021/08/09 08:31:56;;;;;;;2.55;2.27;;;;;;;21.83;81.35;98244.62;1828129;78;20982;-66
2021/08/09 08:34:22;;;;;;;3.10;2.70;;;;;;;21.94;80.61;98260.09;1827956;78;21473;-71
2021/08/09 08:36:51;;;;;;;2.47;2.27;;;;;;;22.05;79.70;98264.38;1827855;78;20916;-67
2021/08/09 08:39:17;;;;;;;3.95;2.80;;;;;;;22.14;78.80;98257.56;1827721;78;20931;-63
2021/08/09 08:41:44;;;;;;;2.92;2.58;;;;;;;22.18;78.85;98256.29;1828083;78;20919;-66
2021/08/09 08:44:19;;;;;;;3.62;2.40;;;;;;;22.26;79.01;98249.23;1827846;78;21352;-63
2021/08/09 08:46:48;;;;;;;3.10;2.27;;;;;;;22.38;78.23;98242.27;1828173;78;21071;-60
2021/08/09 08:49:16;;;;;;;2.67;2.25;;;;;;;22.55;77.77;98242.38;1827774;78;20979;-60
2021/08/09 08:51:46;;;;;;;5.58;2.40;;;;;;;22.70;77.62;98242.89;1824768;78;21386;-62
2021/08/09 08:54:14;;;;;;;2.27;2.05;;;;;;;22.87;77.12;98241.03;1822520;78;21423;-65
2021/08/09 08:56:43;;;;;;;3.95;2.30;;;;;;;22.96;75.66;98234.73;1822558;77;20884;-66
2021/08/09 08:59:14;;;;;;;2.67;2.00;;;;;;;23.10;75.87;98244.53;1822538;78;21778;-68
2021/08/09 09:01:49;;;;;;;3.08;2.15;;;;;;;23.21;74.03;98233.78;1822611;78;20872;-60
2021/08/09 09:04:35;;;;;;;3.77;2.10;;;;;;;23.22;72.89;98235.38;1822450;78;20861;-65
2021/08/09 09:07:04;;;;;;;2.62;2.20;;;;;;;23.21;72.42;98243.34;1822025;78;20869;-69
2021/08/09 09:09:39;;;;;;;3.15;1.77;;;;;;;23.30;72.91;98244.45;1780486;80;20872;-60
2021/08/09 09:12:19;;;;;;;2.55;1.75;;;;;;;23.46;72.31;98253.34;1780506;80;21387;-66
2021/08/09 09:15:02;;;;;;;3.17;1.67;;;;;;;23.52;70.59;98253.22;1780482;80;21482;-66
2021/08/09 09:17:35;;;;;;;2.62;2.00;;;;;;;23.51;69.21;98261.20;1780581;80;20916;-60
2021/08/09 09:20:27;;;;;;;2.55;2.00;;;;;;;23.44;69.36;98263.83;1780528;80;20852;-61
2021/08/09 09:23:18;;;;;;;2.47;1.82;;;;;;;23.45;69.84;98276.34;1780450;80;20883;-62
2021/08/09 09:25:45;;;;;;;3.02;2.05;;;;;;;23.51;70.54;98278.97;1780559;80;21054;-67
2021/08/09 09:28:29;;;;;;;2.83;2.08;;;;;;;23.45;69.96;98273.62;1780352;80;20904;-63
2021/08/09 09:31:10;;;;;;;3.35;2.40;;;;;;;23.36;70.99;98275.82;1774708;80;21019;-67
2021/08/09 09:33:32;;;;;;;3.17;2.15;;;;;;;23.35;71.01;98279.70;1817960;78;20929;-59
2021/08/09 09:36:04;;;;;;;3.30;2.60;;;;;;;23.46;71.53;98288.88;1821988;77;20955;-60
2021/08/09 09:38:43;;;;;;;2.92;2.33;;;;;;;23.47;71.72;98293.16;1821529;78;21683;-64
2021/08/09 09:41:09;;;;;;;3.40;2.47;;;;;;;23.39;71.22;98295.59;1771555;79;20935;-63
2021/08/09 09:43:41;;;;;;;2.47;2.22;;;;;;;23.33;71.51;98301.11;1810539;78;21016;-67
2021/08/09 09:46:24;;;;;;;3.95;2.55;;;;;;;23.32;71.73;98306.38;1821879;77;20932;-65
2021/08/09 09:48:55;;;;;;;2.85;2.58;;;;;;;23.25;71.09;98310.37;1821824;78;20933;-64
2021/08/09 09:51:19;;;;;;;3.55;2.77;;;;;;;23.26;71.53;98317.39;1773639;79;21064;-65
2021/08/09 09:53:48;;;;;;;3.00;2.65;;;;;;;23.35;70.96;98313.86;1771305;80;21014;-62
2021/08/09 09:56:15;;;;;;;3.05;2.50;;;;;;;23.40;71.11;98321.75;1769659;79;21537;-69
2021/08/09 09:58:42;;;;;;;2.30;2.10;;;;;;;23.44;71.56;98329.42;1774495;80;21105;-62
2021/08/09 10:01:10;;;;;;;2.85;2.40;;;;;;;23.45;70.86;98331.02;1775047;80;21057;-63
2021/08/09 10:03:38;;;;;;;2.85;2.30;;;;;;;23.47;70.00;98324.03;1773311;79;21116;-65
2021/08/09 10:06:06;;;;;;;3.25;2.58;;;;;;;23.61;70.53;98338.49;1776217;80;20934;-65
2021/08/09 10:08:43;;;;;;;3.50;2.50;;;;;;;23.69;68.68;98336.09;1774221;80;20903;-63
2021/08/09 10:11:10;;;;;;;5.20;2.50;;;;;;;23.79;68.54;98336.81;1777215;80;20947;-64
2021/08/09 10:13:38;;;;;;;3.58;2.47;;;;;;;23.74;68.99;98346.13;1776327;80;21042;-60
2021/08/09 10:16:07;;;;;;;2.72;2.08;;;;;;;23.62;69.00;98352.39;1777195;80;21125;-68
2021/08/09 10:18:37;;;;;;;8.55;4.58;;;;;;;23.55;68.36;98357.14;1777011;80;20860;-64
2021/08/09 10:21:05;;;;;;;4.97;2.72;;;;;;;23.51;69.13;98348.67;1777190;80;20911;-63
2021/08/09 10:23:44;;;;;;;3.87;2.20;;;;;;;23.53;69.20;98351.86;1777162;80;20927;-61
2021/08/09 10:26:17;;;;;;;4.62;2.00;;;;;;;23.60;68.66;98352.73;1777217;80;20979;-66
2021/08/09 10:28:58;;;;;;;4.03;2.10;;;;;;;23.67;68.89;98351.48;1777272;80;21671;-61
2021/08/09 10:31:29;;;;;;;2.70;1.90;;;;;;;23.72;68.07;98362.69;1777395;80;20871;-62
2021/08/09 10:33:56;;;;;;;3.05;2.00;;;;;;;23.68;67.80;98361.84;1777216;80;20809;-60
2021/08/09 10:36:23;;;;;;;2.90;2.20;;;;;;;23.74;68.10;98367.23;1777137;80;20891;-62
2021/08/09 10:38:58;;;;;;;2.22;1.92;;;;;;;23.73;67.24;98368.38;1777203;80;20951;-65
2021/08/09 10:41:31;;;;;;;2.65;2.05;;;;;;;23.64;67.34;98369.22;1777329;80;21374;-61
2021/08/09 10:44:12;;;;;;;3.58;2.08;;;;;;;23.66;67.56;98373.16;1777133;80;20947;-67
2021/08/09 10:46:41;;;;;;;3.75;2.30;;;;;;;23.61;67.29;98383.04;1777376;80;21439;-62
2021/08/09 10:49:10;;;;;;;2.52;1.87;;;;;;;23.50;68.11;98388.91;1777564;80;21003;-59
2021/08/09 10:51:58;;;;;;;2.12;1.92;;;;;;;23.44;68.09;98388.20;1777012;80;20979;-65
2021/08/09 10:54:35;;;;;;;3.17;2.40;;;;;;;23.44;68.65;98400.50;1777200;80;21073;-65
2021/08/09 10:57:03;;;;;;;4.62;2.50;;;;;;;23.31;68.33;98403.17;1777026;80;20868;-58
2021/08/09 10:59:47;;;;;;;2.92;2.60;;;;;;;23.06;68.16;98407.60;1777037;80;20915;-59
2021/08/09 11:02:26;;;;;;;3.75;2.37;;;;;;;22.86;69.39;98410.72;1777093;80;21390;-63
2021/08/09 11:05:19;;;;;;;2.60;2.40;;;;;;;22.62;69.32;98415.89;1777096;80;20865;-61
2021/08/09 11:07:49;;;;;;;4.45;2.08;;;;;;;22.53;70.10;98408.46;1777369;80;21089;-65
2021/08/09 11:10:56;;;;;;;3.70;2.08;;;;;;;22.52;69.63;98412.33;1777125;80;21002;-68
2021/08/09 11:13:27;;;;;;;2.98;2.20;;;;;;;22.62;69.37;98411.00;1756120;80;21411;-68
2021/08/09 11:16:05;;;;;;;3.58;2.47;;;;;;;22.68;69.24;98411.72;1777450;80;20864;-62
2021/08/09 11:18:34;;;;;;;2.22;1.77;;;;;;;22.68;69.48;98414.45;1777586;80;20836;-66
2021/08/09 11:21:09;;;;;;;3.92;2.08;;;;;;;22.73;69.89;98412.80;1777118;80;21119;-65
2021/08/09 11:23:41;;;;;;;;;;;;;;;22.77;69.57;98416.41;1780157;80;20841;-65
2021/08/09 11:26:23;;;;;;;3.15;2.00;;;;;;;22.69;69.36;98420.13;1777078;80;20145;-67
2021/08/09 11:29:06;;;;;;;2.20;1.87;;;;;;;22.61;70.06;98417.03;1771964;80;20892;-68
2021/08/09 11:31:48;;;;;;;4.60;2.10;;;;;;;22.58;70.23;98419.10;1748326;80;21585;-62
2021/08/09 11:34:15;;;;;;;2.87;1.80;;;;;;;22.47;69.39;98418.06;1747041;80;21723;-67
2021/08/09 11:36:42;;;;;;;2.08;1.80;;;;;;;22.28;69.47;98412.61;1762899;81;20885;-67
2021/08/09 11:39:09;;;;;;;2.17;1.67;;;;;;;22.16;70.08;98420.91;1759597;80;20920;-65
2021/08/09 11:41:36;;;;;;;2.77;1.87;;;;;;;22.08;70.80;98419.15;1749312;79;20974;-62
2021/08/09 11:44:08;;;;;;;2.12;1.87;;;;;;;21.94;70.90;98425.07;1766749;80;21433;-61
2021/08/09 11:46:48;;;;;;;2.90;1.98;;;;;;;21.91;71.50;98434.52;1777002;80;21002;-67
2021/08/09 11:49:15;;;;;;;4.87;2.00;;;;;;;21.91;71.56;98435.88;1777467;80;20817;-67
2021/08/09 11:51:42;;;;;;;2.55;2.10;;;;;;;21.92;71.42;98437.47;1778444;80;20963;-65
2021/08/09 11:54:08;;;;;;;4.22;2.20;;;;;;;21.99;71.81;98437.08;1785443;80;20970;-67
2021/08/09 11:56:36;;;;;;;2.22;1.80;;;;;;;22.09;71.63;98427.56;1784220;78;20880;-62
2021/08/09 11:59:13;;;;;;;3.92;2.05;;;;;;;22.16;71.88;98434.55;1767733;80;21519;-68
2021/08/09 12:01:42;;;;;;;3.05;1.90;;;;;;;22.28;70.90;98437.93;1748466;81;20929;-62
2021/08/09 12:04:13;;;;;;;2.33;1.85;;;;;;;22.39;70.44;98436.81;1776130;80;20958;-58
2021/08/09 12:06:58;;;;;;;1.98;1.77;;;;;;;22.37;69.82;98445.94;1779640;78;20946;-66
2021/08/09 12:09:41;;;;;;;2.65;1.92;;;;;;;22.23;69.90;98446.98;1759917;78;20879;-61
2021/08/09 12:12:10;;;;;;;2.70;1.90;;;;;;;22.11;69.91;98452.55;1789188;78;21084;-62
2021/08/09 12:14:38;;;;;;;3.65;1.87;;;;;;;21.93;70.09;98454.84;1770355;78;21011;-62
2021/08/09 12:17:17;;;;;;;2.62;1.90;;;;;;;21.76;70.24;98448.38;1757067;78;21311;-60
2021/08/09 12:19:52;;;;;;;2.55;1.85;;;;;;;21.61;70.72;98448.58;1772404;80;21370;-68
2021/08/09 12:22:30;;;;;;;3.87;2.20;;;;;;;21.57;71.63;98453.72;1754666;81;21030;-62
2021/08/09 12:25:04;;;;;;;2.20;1.80;;;;;;;21.59;71.88;98449.51;1769406;78;21106;-65
2021/08/09 12:27:31;;;;;;;1.82;1.65;;;;;;;21.65;71.54;98451.38;1754586;81;21500;-61
2021/08/09 12:30:16;;;;;;;2.00;1.60;;;;;;;21.71;70.95;98454.88;1754393;81;20966;-59
2021/08/09 12:32:46;;;;;;;;;;;;;;;21.72;70.30;98456.45;1780604;79;21387;-62
2021/08/09 12:35:15;;;;;;;2.87;1.70;;;;;;;21.82;70.51;98456.48;1762896;80;20081;-60
2021/08/09 12:37:43;;;;;;;1.60;1.40;;;;;;;21.88;70.26;98455.70;1754848;80;21113;-62
2021/08/09 12:40:16;;;;;;;2.02;1.82;;;;;;;21.94;69.58;98463.25;1714627;80;21518;-62
2021/08/09 12:43:08;;;;;;;2.00;1.60;;;;;;;22.02;69.59;98456.03;1774993;80;20964;-59
2021/08/09 12:45:37;;;;;;;2.45;1.90;;;;;;;22.07;68.82;98461.99;1759341;80;20861;-59
2021/08/09 12:48:07;;;;;;;2.25;1.80;;;;;;;22.08;68.66;98458.70;1775955;80;20916;-61
2021/08/09 12:50:35;;;;;;;2.80;1.55;;;;;;;22.13;68.75;98461.16;1776863;80;21047;-66
2021/08/09 12:53:04;;;;;;;4.58;1.57;;;;;;;22.22;68.76;98459.03;1778659;80;20932;-67
2021/08/09 12:55:31;;;;;;;2.30;1.70;;;;;;;22.25;68.39;98457.76;1779964;80;21036;-62
2021/08/09 12:58:02;;;;;;;2.58;1.95;;;;;;;22.23;68.79;98461.98;1780029;80;20900;-66
2021/08/09 13:00:29;;;;;;;2.05;1.65;;;;;;;22.27;69.17;98465.58;1779893;80;20983;-59
2021/08/09 13:02:56;;;;;;;2.05;1.50;;;;;;;22.28;69.02;98460.35;1779969;80;21116;-66
2021/08/09 13:05:25;;;;;;;2.05;1.82;;;;;;;22.20;68.55;98469.51;1779805;80;20861;-63
